Time;durP1;ratioP1;P1;durP2;ratioP2;P2;SDS_P1;SDS_P2;PMS_P1;PMS_P2;Temp;Humidity;BMP_temperature;BMP_pressure;BME280_temperature;BME280_humidity;BME280_pressure;Samples;Min_cycle;Max_cycle;Signal;HPM_P1;HPM_P2
2022/06/12 00:01:23;;;;;;;1.33;1.27;;;;;;;17.95;100.00;96442.44;4743985;30;20068;-55
2022/06/12 00:03:50;;;;;;;0.80;0.80;;;;;;;17.97;100.00;96457.56;4745221;30;20064;-56
2022/06/12 00:06:18;;;;;;;1.40;1.40;;;;;;;17.85;100.00;96455.44;4744963;30;20150;-56
2022/06/12 00:08:45;;;;;;;0.80;0.80;;;;;;;17.93;100.00;96451.25;4745312;30;20622;-55
2022/06/12 00:11:19;;;;;;;0.80;0.80;;;;;;;17.90;100.00;96459.75;4745175;30;20079;-57
2022/06/12 00:14:00;;;;;;;0.70;0.70;;;;;;;17.79;100.00;96461.97;4745359;30;20067;-56
2022/06/12 00:16:31;;;;;;;1.10;1.10;;;;;;;17.89;100.00;96458.16;4729228;30;20067;-55
2022/06/12 00:18:59;;;;;;;1.23;1.23;;;;;;;17.22;100.00;96367.09;4743885;30;20064;-56
2022/06/12 00:21:27;;;;;;;3.85;1.40;;;;;;;17.57;100.00;96438.41;4744639;30;20556;-58
2022/06/12 00:24:00;;;;;;;0.80;0.80;;;;;;;17.51;100.00;96448.53;4744737;30;20529;-56
2022/06/12 00:26:33;;;;;;;1.02;1.02;;;;;;;17.53;100.00;96452.47;4728915;30;20485;-56
2022/06/12 00:29:05;;;;;;;0.80;0.80;;;;;;;17.54;100.00;96450.47;4758260;30;20437;-58
2022/06/12 00:31:35;;;;;;;0.75;0.75;;;;;;;17.41;100.00;96429.91;4744732;30;20060;-56
2022/06/12 00:34:02;;;;;;;0.85;0.85;;;;;;;17.57;100.00;96446.81;4745052;30;20115;-57
2022/06/12 00:36:29;;;;;;;1.05;1.05;;;;;;;17.15;100.00;96405.63;4744880;30;20071;-56
2022/06/12 00:38:56;;;;;;;0.77;0.77;;;;;;;17.41;100.00;96441.09;4744513;30;20103;-56
2022/06/12 00:41:24;;;;;;;0.60;0.60;;;;;;;17.47;100.00;96439.41;4728777;30;20064;-59
2022/06/12 00:43:52;;;;;;;1.55;1.50;;;;;;;17.28;100.00;96426.94;4744418;30;20452;-56
2022/06/12 00:46:38;;;;;;;1.02;1.02;;;;;;;17.33;100.00;96439.66;4743604;30;20149;-56
2022/06/12 00:49:29;;;;;;;0.80;0.80;;;;;;;17.03;100.00;96400.63;4744471;30;20521;-56
2022/06/12 00:52:25;;;;;;;0.70;0.70;;;;;;;17.17;100.00;96431.16;4744328;30;20064;-55
2022/06/12 00:54:57;;;;;;;0.80;0.80;;;;;;;17.13;100.00;96425.66;4737043;30;20064;-56
2022/06/12 00:57:25;;;;;;;0.60;0.60;;;;;;;16.96;100.00;96395.19;4744506;30;20075;-59
2022/06/12 00:59:57;;;;;;;0.70;0.70;;;;;;;17.21;100.00;96437.50;4757445;30;20064;-56
2022/06/12 01:02:29;;;;;;;0.60;0.60;;;;;;;17.21;100.00;96431.91;4744091;30;20067;-57
2022/06/12 01:07:48;;;;;;;0.60;0.60;;;;;;;17.16;100.00;96424.78;4743815;30;20064;-56
2022/06/12 01:10:18;;;;;;;0.60;0.60;;;;;;;17.13;100.00;96419.25;4757404;30;20346;-57
2022/06/12 01:12:50;;;;;;;0.70;0.70;;;;;;;17.22;100.00;96427.88;4743948;30;20076;-58
2022/06/12 01:15:23;;;;;;;0.73;0.73;;;;;;;16.53;100.00;96331.59;4744146;30;20064;-55
2022/06/12 01:17:52;;;;;;;0.60;0.60;;;;;;;17.08;100.00;96422.53;4743677;30;20499;-55
2022/06/12 01:20:25;;;;;;;0.60;0.60;;;;;;;16.69;100.00;96367.31;4744263;30;20064;-57
2022/06/12 01:23:15;;;;;;;0.77;0.77;;;;;;;16.57;100.00;96340.72;4727936;30;20508;-55
2022/06/12 01:26:00;;;;;;;0.70;0.70;;;;;;;17.25;100.00;96429.81;4743951;30;20087;-56
2022/06/12 01:28:44;;;;;;;0.70;0.70;;;;;;;17.25;100.00;96424.22;4742983;30;20273;-55
2022/06/12 01:31:13;;;;;;;;;;;;;;;17.13;100.00;96434.03;4742904;30;20068;-56
2022/06/12 01:34:18;;;;;;;0.93;0.93;;;;;;;17.11;100.00;96433.66;4742363;30;20520;-55
2022/06/12 01:37:16;;;;;;;0.60;0.60;;;;;;;17.23;100.00;96446.25;4739472;30;20071;-56
2022/06/12 01:39:52;;;;;;;1.02;1.02;;;;;;;17.21;100.00;96443.09;4725863;30;20358;-56
2022/06/12 01:42:37;;;;;;;0.70;0.70;;;;;;;17.13;100.00;96434.03;4726215;30;20072;-58
2022/06/12 01:45:19;;;;;;;0.65;0.65;;;;;;;17.15;100.00;96439.22;4726412;30;20146;-56
2022/06/12 01:47:59;;;;;;;0.70;0.70;;;;;;;17.19;100.00;96429.53;4726057;30;20075;-58
2022/06/12 01:50:40;;;;;;;1.25;1.20;;;;;;;16.87;100.00;96400.53;4726091;30;20571;-56
2022/06/12 01:53:31;;;;;;;0.70;0.70;;;;;;;17.17;100.00;96425.56;4710421;30;20073;-56
2022/06/12 01:56:27;;;;;;;0.68;0.68;;;;;;;17.13;100.00;96416.44;4720146;30;20060;-55
2022/06/12 01:59:03;;;;;;;0.60;0.60;;;;;;;17.11;100.00;96421.69;4726261;30;20072;-55
2022/06/12 02:02:11;;;;;;;0.90;0.90;;;;;;;17.13;100.00;96414.44;4725391;30;20192;-56
2022/06/12 02:05:09;;;;;;;0.60;0.60;;;;;;;17.18;100.00;96418.75;4725912;30;20072;-56
2022/06/12 02:07:43;;;;;;;0.63;0.63;;;;;;;17.26;100.00;96417.41;4725733;30;20067;-57
2022/06/12 02:10:27;;;;;;;1.52;1.02;;;;;;;17.17;100.00;96403.16;4725910;30;20068;-56
2022/06/12 02:13:12;;;;;;;;;;;;;;;17.40;100.00;96412.28;4727200;30;20060;-57
2022/06/12 02:15:54;;;;;;;0.70;0.70;;;;;;;17.24;100.00;96403.03;4724318;30;19931;-56
2022/06/12 02:18:31;;;;;;;0.70;0.70;;;;;;;17.21;100.00;96409.50;4739226;30;20470;-56
2022/06/12 02:21:07;;;;;;;0.80;0.80;;;;;;;16.98;100.00;96356.34;4726151;30;20087;-56
2022/06/12 02:23:46;;;;;;;0.60;0.60;;;;;;;17.33;100.00;96400.47;4738863;30;20516;-55
2022/06/12 02:26:17;;;;;;;0.70;0.70;;;;;;;17.37;100.00;96401.19;4725536;30;20631;-56
2022/06/12 02:28:52;;;;;;;0.60;0.60;;;;;;;16.96;100.00;96342.03;4725518;30;20617;-55
2022/06/12 02:31:36;;;;;;;0.68;0.68;;;;;;;17.23;100.00;96393.06;4725609;30;20061;-56
2022/06/12 02:34:12;;;;;;;0.60;0.60;;;;;;;17.35;100.00;96410.03;4727190;30;20061;-55
2022/06/12 02:36:45;;;;;;;0.88;0.88;;;;;;;17.32;100.00;96410.09;4727701;30;20068;-57
2022/06/12 02:39:21;;;;;;;;;;;;;;;17.35;100.00;96409.22;4727632;30;20072;-56
2022/06/12 02:41:52;;;;;;;0.73;0.73;;;;;;;17.27;100.00;96408.56;4742381;30;19937;-57
2022/06/12 02:44:24;;;;;;;4.13;2.67;;;;;;;17.21;100.00;96406.69;4743103;30;20060;-55
2022/06/12 02:46:55;;;;;;;2.55;2.22;;;;;;;17.20;100.00;96413.53;4741675;30;20063;-57
2022/06/12 02:49:23;;;;;;;0.70;0.70;;;;;;;17.08;100.00;96394.56;4742657;30;20061;-56
2022/06/12 02:52:29;;;;;;;0.70;0.70;;;;;;;16.88;100.00;96388.13;4743015;30;20060;-56
2022/06/12 02:55:17;;;;;;;0.70;0.70;;;;;;;17.17;100.00;96414.34;4743492;30;20064;-57
2022/06/12 02:57:51;;;;;;;0.70;0.70;;;;;;;17.18;100.00;96421.56;4742270;30;20515;-55
2022/06/12 03:00:37;;;;;;;0.70;0.70;;;;;;;17.18;100.00;96415.97;4743395;30;20569;-57
2022/06/12 03:03:24;;;;;;;0.60;0.60;;;;;;;17.22;100.00;96405.47;4742057;30;20068;-57
2022/06/12 03:05:54;;;;;;;0.75;0.75;;;;;;;17.27;100.00;96419.78;4742790;30;20075;-57
2022/06/12 03:08:24;;;;;;;0.60;0.60;;;;;;;17.33;100.00;96422.84;4742642;30;20056;-56
2022/06/12 03:10:59;;;;;;;0.90;0.90;;;;;;;17.25;100.00;96415.81;4742697;30;20064;-56
2022/06/12 03:13:28;;;;;;;0.70;0.70;;;;;;;17.25;100.00;96410.22;4744201;30;20064;-55
2022/06/12 03:15:59;;;;;;;37.13;3.17;;;;;;;17.31;100.00;96414.13;4746444;30;20068;-57
2022/06/12 03:18:29;;;;;;;0.82;0.82;;;;;;;17.34;100.00;96407.66;4746160;30;20573;-55
2022/06/12 03:21:16;;;;;;;0.70;0.70;;;;;;;17.24;100.00;96405.84;4729963;30;20068;-57
2022/06/12 03:24:03;;;;;;;0.60;0.60;;;;;;;17.26;100.00;96412.56;4745994;30;20448;-55
2022/06/12 03:27:04;;;;;;;0.70;0.70;;;;;;;17.26;100.00;96412.56;4745805;30;20098;-57
2022/06/12 03:29:49;;;;;;;1.00;1.00;;;;;;;17.25;100.00;96415.81;4746017;30;20063;-55
2022/06/12 03:32:21;;;;;;;0.70;0.70;;;;;;;16.80;100.00;96325.94;4744361;30;20075;-56
2022/06/12 03:35:03;;;;;;;0.70;0.70;;;;;;;16.94;100.00;96355.66;4745624;30;20436;-56
2022/06/12 03:37:30;;;;;;;0.70;0.70;;;;;;;17.41;100.00;96413.09;4745804;30;20075;-54
2022/06/12 03:40:28;;;;;;;0.70;0.70;;;;;;;17.50;100.00;96422.53;4746189;30;20497;-56
2022/06/12 03:43:18;;;;;;;0.60;0.60;;;;;;;17.55;100.00;96421.25;4745982;30;20068;-55
2022/06/12 03:45:54;;;;;;;0.70;0.70;;;;;;;17.61;100.00;96433.53;4745784;30;20064;-59
2022/06/12 03:48:26;;;;;;;0.70;0.70;;;;;;;17.47;100.00;96422.59;4745680;30;20445;-55
2022/06/12 03:51:13;;;;;;;0.93;0.93;;;;;;;17.44;100.00;96435.47;4745598;30;20087;-56
2022/06/12 03:53:50;;;;;;;0.70;0.70;;;;;;;17.50;100.00;96435.75;4745615;30;20117;-56
2022/06/12 03:59:30;;;;;;;0.65;0.65;;;;;;;17.72;100.00;96423.69;4745571;30;20134;-59
2022/06/12 04:01:58;;;;;;;2.50;1.15;;;;;;;17.72;100.00;96431.31;4745451;30;20063;-55
2022/06/12 04:04:29;;;;;;;0.60;0.60;;;;;;;17.68;100.00;96433.38;4745613;30;20067;-56
2022/06/12 04:07:01;;;;;;;0.80;0.80;;;;;;;17.61;100.00;96427.91;4729671;30;20068;-58
2022/06/12 04:09:31;;;;;;;0.60;0.60;;;;;;;17.56;100.00;96425.66;4745388;30;20067;-56
2022/06/12 04:12:01;;;;;;;0.70;0.70;;;;;;;17.67;100.00;96423.41;4743977;30;20544;-56
2022/06/12 04:14:36;;;;;;;0.70;0.70;;;;;;;17.73;100.00;96413.28;4745795;30;20072;-55
2022/06/12 04:17:04;;;;;;;0.70;0.70;;;;;;;17.97;100.00;96446.38;4744184;30;20418;-56
2022/06/12 04:19:58;;;;;;;0.80;0.80;;;;;;;18.03;100.00;96449.47;4745321;30;20064;-56
2022/06/12 04:22:24;;;;;;;0.65;0.65;;;;;;;18.11;100.00;96445.28;4744768;30;20071;-55
2022/06/12 04:24:58;;;;;;;0.60;0.60;;;;;;;18.17;100.00;96459.56;4744526;30;20071;-55
2022/06/12 04:27:36;;;;;;;0.80;0.80;;;;;;;18.32;100.00;96456.00;4749147;30;20520;-54
2022/06/12 04:30:15;;;;;;;0.85;0.85;;;;;;;18.42;100.00;96455.00;4729554;30;20083;-54
2022/06/12 04:32:42;;;;;;;0.70;0.70;;;;;;;18.39;100.00;96444.66;4745271;30;20064;-56
2022/06/12 04:35:09;;;;;;;0.85;0.85;;;;;;;18.51;100.00;96452.38;4728437;30;20068;-57
2022/06/12 04:37:36;;;;;;;0.70;0.70;;;;;;;18.56;100.00;96449.06;4744505;30;20067;-58
2022/06/12 04:40:07;;;;;;;0.90;0.90;;;;;;;18.70;100.00;96448.72;4744898;30;20064;-54
2022/06/12 04:42:34;;;;;;;0.70;0.70;;;;;;;18.56;100.00;96435.03;4728335;30;20532;-55
2022/06/12 04:45:05;;;;;;;0.70;0.70;;;;;;;18.69;100.00;96449.97;4744878;30;20060;-56
2022/06/12 04:47:32;;;;;;;0.80;0.80;;;;;;;18.69;100.00;96452.75;4744928;30;20099;-55
2022/06/12 04:49:59;;;;;;;0.70;0.70;;;;;;;18.47;100.00;96437.66;4725348;30;20548;-55
2022/06/12 04:52:27;;;;;;;2.28;1.38;;;;;;;18.16;100.00;96413.94;4726443;30;20068;-56
2022/06/12 04:54:54;;;;;;;0.70;0.70;;;;;;;18.33;100.00;96452.00;4754858;30;20075;-56
2022/06/12 04:57:24;;;;;;;0.70;0.70;;;;;;;18.28;100.00;96455.31;4727018;30;20068;-55
2022/06/12 04:59:52;;;;;;;0.70;0.70;;;;;;;18.31;100.00;96465.66;4727234;30;20509;-57
2022/06/12 05:02:18;;;;;;;0.70;0.70;;;;;;;18.35;100.00;96460.78;4726387;30;20081;-58
2022/06/12 05:04:45;;;;;;;0.60;0.60;;;;;;;17.95;100.00;96397.59;4740171;30;20512;-55
2022/06/12 05:07:14;;;;;;;0.70;0.70;;;;;;;18.43;100.00;96467.78;4726262;30;20069;-56
2022/06/12 05:09:41;;;;;;;0.70;0.70;;;;;;;18.23;100.00;96424.16;4726687;30;20066;-55
2022/06/12 05:12:12;;;;;;;0.70;0.70;;;;;;;18.49;100.00;96477.28;4739568;30;20068;-56
2022/06/12 05:14:40;;;;;;;0.70;0.70;;;;;;;18.54;100.00;96476.00;4739846;30;20064;-55
2022/06/12 05:17:11;;;;;;;0.70;0.70;;;;;;;18.52;100.00;96482.03;4726593;30;20445;-56
2022/06/12 05:19:41;;;;;;;0.80;0.80;;;;;;;18.28;100.00;96460.91;4726782;30;20560;-58
2022/06/12 05:22:10;;;;;;;0.70;0.70;;;;;;;18.45;100.00;96482.19;4726788;30;20064;-55
2022/06/12 05:24:37;;;;;;;0.70;0.70;;;;;;;18.19;100.00;96491.56;4726018;30;20056;-56
2022/06/12 05:27:08;;;;;;;7.10;1.35;;;;;;;18.29;100.00;96490.53;4726479;30;20060;-56
2022/06/12 05:29:37;;;;;;;0.80;0.80;;;;;;;18.36;100.00;96490.38;4726378;30;20087;-57
2022/06/12 05:32:05;;;;;;;0.80;0.80;;;;;;;18.33;100.00;96485.66;4726243;30;20174;-59
2022/06/12 05:34:33;;;;;;;0.70;0.70;;;;;;;18.43;100.00;96493.03;4725777;30;20088;-56
2022/06/12 05:37:01;;;;;;;0.60;0.60;;;;;;;18.45;100.00;96482.19;4726303;30;20430;-56
2022/06/12 05:39:28;;;;;;;0.95;0.95;;;;;;;18.49;100.00;96493.31;4739525;30;20087;-58
2022/06/12 05:41:55;;;;;;;0.70;0.70;;;;;;;18.48;100.00;96500.94;4726238;30;20064;-57
2022/06/12 05:44:21;;;;;;;0.70;0.70;;;;;;;18.42;100.00;96522.31;4726097;30;20422;-55
2022/06/12 05:46:54;;;;;;;0.70;0.70;;;;;;;18.28;100.00;96513.38;4726252;30;20114;-56
2022/06/12 05:49:21;;;;;;;1.30;1.20;;;;;;;18.35;100.00;96516.84;4736984;30;20180;-56
2022/06/12 05:51:48;;;;;;;0.70;0.70;;;;;;;18.37;100.00;96520.00;4743415;30;20486;-55
2022/06/12 05:54:15;;;;;;;0.73;0.73;;;;;;;18.30;100.00;96513.75;4727887;30;20067;-55
2022/06/12 05:56:41;;;;;;;0.70;0.70;;;;;;;18.15;100.00;96485.22;4743385;30;20071;-58
2022/06/12 05:59:09;;;;;;;1.50;1.33;;;;;;;18.52;100.00;96529.72;4743432;30;20064;-55
2022/06/12 06:01:41;;;;;;;0.70;0.70;;;;;;;18.64;100.00;96512.19;4742047;30;20417;-56
2022/06/12 06:04:08;;;;;;;0.70;0.70;;;;;;;18.92;100.00;96525.56;4743125;30;20078;-55
2022/06/12 06:06:44;;;;;;;0.77;0.77;;;;;;;19.02;100.00;96515.31;4743320;30;20142;-55
2022/06/12 06:09:12;;;;;;;1.00;1.00;;;;;;;19.16;100.00;96526.97;4744089;30;20171;-55
2022/06/12 06:11:40;;;;;;;0.70;0.70;;;;;;;19.19;100.00;96526.09;4727313;30;20512;-58
2022/06/12 06:14:07;;;;;;;0.70;0.70;;;;;;;18.95;100.00;96464.97;4741941;30;20060;-55
2022/06/12 06:16:38;;;;;;;1.20;1.20;;;;;;;19.28;100.00;96489.78;4743138;30;20067;-56
2022/06/12 06:19:04;;;;;;;0.80;0.80;;;;;;;19.51;100.00;96520.50;4743259;30;20072;-55
2022/06/12 06:21:31;;;;;;;1.25;1.25;;;;;;;19.23;100.00;96493.13;4727149;30;20090;-57
2022/06/12 06:23:58;;;;;;;0.88;0.88;;;;;;;19.51;100.00;96519.69;4743293;30;20071;-54
2022/06/12 06:26:25;;;;;;;0.80;0.80;;;;;;;19.43;100.00;96479.78;4743383;30;20068;-55
2022/06/12 06:28:52;;;;;;;0.80;0.80;;;;;;;19.90;100.00;96518.66;4743233;30;20102;-58
2022/06/12 06:31:19;;;;;;;0.90;0.90;;;;;;;19.96;100.00;96522.50;4743758;30;20076;-55
2022/06/12 06:33:47;;;;;;;1.00;1.00;;;;;;;19.92;100.00;96527.41;4743068;30;20519;-59
2022/06/12 06:36:15;;;;;;;0.70;0.70;;;;;;;19.85;100.00;96539.66;4742657;30;20216;-56
2022/06/12 06:38:43;;;;;;;1.27;1.27;;;;;;;19.94;100.00;96524.94;4742762;30;20063;-59
2022/06/12 06:41:10;;;;;;;0.80;0.80;;;;;;;20.12;100.00;96517.59;4742879;30;20072;-57
2022/06/12 06:46:22;;;;;;;1.02;1.02;;;;;;;20.18;100.00;96456.00;4743098;30;20146;-53
2022/06/12 06:48:50;;;;;;;1.85;1.60;;;;;;;20.25;100.00;96489.56;4744465;30;20185;-55
2022/06/12 06:51:17;;;;;;;1.00;1.00;;;;;;;20.17;100.00;96496.63;4746252;30;20079;-55
2022/06/12 06:53:44;;;;;;;1.23;1.23;;;;;;;19.95;100.00;96476.72;4746216;30;20060;-54
2022/06/12 06:56:11;;;;;;;1.20;1.20;;;;;;;20.35;100.00;96534.22;4745015;30;20448;-55
2022/06/12 06:58:38;;;;;;;0.80;0.80;;;;;;;20.25;100.00;96534.56;4746517;30;20060;-56
2022/06/12 07:01:05;;;;;;;1.23;1.23;;;;;;;20.04;100.00;96540.75;4745996;30;20091;-57
2022/06/12 07:03:31;;;;;;;1.30;1.20;;;;;;;19.94;100.00;96545.44;4744965;30;20068;-55
2022/06/12 07:05:59;;;;;;;4.22;1.90;;;;;;;19.77;100.00;96535.47;4746593;30;20177;-55
2022/06/12 07:08:29;;;;;;;1.13;1.13;;;;;;;19.82;100.00;96545.38;4746220;30;20064;-58
2022/06/12 07:10:57;;;;;;;1.60;1.50;;;;;;;19.95;100.00;96554.66;4745308;30;20067;-57
2022/06/12 07:13:24;;;;;;;0.98;0.98;;;;;;;19.89;100.00;96556.41;4746110;30;20079;-56
2022/06/12 07:15:51;;;;;;;1.13;1.13;;;;;;;19.95;100.00;96554.66;4730402;30;20064;-56
2022/06/12 07:18:19;;;;;;;1.35;1.25;;;;;;;19.92;100.00;96527.41;4746659;30;20067;-57
2022/06/12 07:20:50;;;;;;;0.90;0.90;;;;;;;20.00;100.00;96545.66;4746320;30;20068;-55
2022/06/12 07:23:18;;;;;;;0.80;0.80;;;;;;;19.97;100.00;96569.03;4745677;30;20499;-57
2022/06/12 07:25:52;;;;;;;1.00;1.00;;;;;;;19.91;100.00;96556.78;4746033;30;20081;-56
2022/06/12 07:28:20;;;;;;;1.00;1.00;;;;;;;19.82;100.00;96565.06;4745876;30;20060;-57
2022/06/12 07:30:47;;;;;;;0.90;0.90;;;;;;;19.52;100.00;96510.81;4745826;30;20056;-56
2022/06/12 07:33:14;;;;;;;1.45;1.45;;;;;;;19.63;100.00;96492.91;4746113;30;20066;-55
2022/06/12 07:35:42;;;;;;;0.90;0.90;;;;;;;20.15;100.00;96566.56;4746155;30;20060;-58
2022/06/12 07:38:11;;;;;;;1.00;1.00;;;;;;;20.36;100.00;96563.16;4744487;30;20345;-56
2022/06/12 07:40:43;;;;;;;1.08;1.08;;;;;;;20.30;100.00;96570.56;4729903;30;20068;-55
2022/06/12 07:43:09;;;;;;;1.85;1.75;;;;;;;20.44;100.00;96570.13;4744212;30;20144;-55
2022/06/12 07:45:39;;;;;;;1.00;1.00;;;;;;;20.29;100.00;96568.97;4745314;30;20501;-55
2022/06/12 07:48:06;;;;;;;1.00;1.00;;;;;;;20.26;100.00;96581.13;4745463;30;20064;-55
2022/06/12 07:50:33;;;;;;;0.88;0.88;;;;;;;20.34;100.00;96585.31;4745584;30;20090;-56
2022/06/12 07:53:00;;;;;;;1.00;1.00;;;;;;;19.96;100.00;96564.66;4745311;30;20060;-58
2022/06/12 07:55:27;;;;;;;1.25;1.25;;;;;;;20.46;100.00;96584.56;4745531;30;20064;-55
2022/06/12 07:57:54;;;;;;;1.38;1.38;;;;;;;20.79;100.00;96580.34;4745616;30;20059;-57
2022/06/12 08:00:20;;;;;;;1.88;1.77;;;;;;;20.95;100.00;96538.00;4744530;30;20091;-55
2022/06/12 08:02:47;;;;;;;1.00;1.00;;;;;;;21.46;100.00;96584.69;4745406;30;20473;-56
2022/06/12 08:05:17;;;;;;;0.90;0.90;;;;;;;21.52;100.00;96570.78;4729339;30;20078;-58
2022/06/12 08:07:44;;;;;;;1.20;1.20;;;;;;;21.84;96.62;96582.63;4745128;30;20456;-56
2022/06/12 08:10:11;;;;;;;0.90;0.90;;;;;;;21.81;96.37;96592.00;4745277;30;20075;-56
2022/06/12 08:12:44;;;;;;;1.10;1.10;;;;;;;21.03;97.17;96595.72;4743850;30;20582;-58
2022/06/12 08:15:16;;;;;;;1.33;1.33;;;;;;;21.10;95.39;96595.53;4745689;30;20060;-58
2022/06/12 08:17:43;;;;;;;1.00;1.00;;;;;;;21.13;94.86;96611.53;4745318;30;20056;-58
2022/06/12 08:20:33;;;;;;;0.90;0.90;;;;;;;20.58;97.66;96600.72;4745088;30;20063;-58
2022/06/12 08:23:26;;;;;;;0.90;0.90;;;;;;;20.99;94.80;96589.44;4745015;30;20068;-56
2022/06/12 08:25:59;;;;;;;0.95;0.95;;;;;;;21.28;94.93;96590.09;4745102;30;20064;-55
2022/06/12 08:28:29;;;;;;;0.90;0.90;;;;;;;21.59;94.25;96587.47;4745564;30;20067;-56
2022/06/12 08:30:56;;;;;;;1.00;1.00;;;;;;;21.48;93.01;96531.44;4745605;30;20071;-57
2022/06/12 08:33:24;;;;;;;1.00;1.00;;;;;;;21.99;90.98;96597.78;4745667;30;20135;-55
2022/06/12 08:35:51;;;;;;;1.95;1.85;;;;;;;21.59;90.96;96565.69;4745091;30;20075;-57
2022/06/12 08:38:17;;;;;;;1.20;1.20;;;;;;;21.19;89.67;96609.72;4744662;30;20133;-56
2022/06/12 08:41:00;;;;;;;1.10;1.10;;;;;;;20.82;86.94;96573.81;4743089;30;20064;-55
2022/06/12 08:43:34;;;;;;;0.90;0.90;;;;;;;20.63;91.75;96622.66;4744682;30;20076;-56
2022/06/12 08:46:31;;;;;;;1.20;1.20;;;;;;;20.63;94.77;96566.34;4743046;30;20064;-56
2022/06/12 08:49:09;;;;;;;2.40;2.20;;;;;;;20.11;92.97;96611.63;4732313;30;20071;-55
2022/06/12 08:51:48;;;;;;;0.80;0.80;;;;;;;19.81;97.75;96622.50;4743269;30;20067;-57
2022/06/12 08:54:21;;;;;;;0.80;0.80;;;;;;;19.63;98.65;96622.16;4744298;30;20524;-56
2022/06/12 08:56:56;;;;;;;1.20;1.20;;;;;;;19.53;100.00;96618.38;4744111;30;20505;-56
2022/06/12 08:59:42;;;;;;;0.80;0.80;;;;;;;19.52;100.00;96620.41;4744522;30;20060;-56
2022/06/12 09:02:26;;;;;;;1.60;1.55;;;;;;;19.32;100.00;96619.69;4744205;30;20554;-56
2022/06/12 09:04:53;;;;;;;1.67;1.58;;;;;;;18.79;100.00;96566.78;4744519;30;20064;-55
2022/06/12 09:07:32;;;;;;;1.05;1.05;;;;;;;18.67;100.00;96570.25;4744353;30;20060;-56
2022/06/12 09:10:09;;;;;;;5.28;1.35;;;;;;;18.04;100.00;96456.63;4744510;30;20097;-56
2022/06/12 09:12:49;;;;;;;1.63;1.52;;;;;;;19.07;100.00;96613.84;4743812;30;20064;-56
2022/06/12 09:15:34;;;;;;;0.80;0.80;;;;;;;19.11;100.00;96608.94;4744398;30;20074;-56
2022/06/12 09:18:29;;;;;;;0.80;0.80;;;;;;;19.19;100.00;96607.53;4744104;30;20068;-60
2022/06/12 09:21:20;;;;;;;0.80;0.80;;;;;;;19.25;100.00;96607.81;4742725;30;20062;-61
2022/06/12 09:23:46;;;;;;;0.70;0.70;;;;;;;19.12;100.00;96627.38;4744262;30;20547;-60
2022/06/12 09:26:27;;;;;;;0.90;0.90;;;;;;;18.94;100.00;96604.53;4743776;30;20449;-61
2022/06/12 09:29:05;;;;;;;1.00;1.00;;;;;;;19.17;100.00;96618.41;4744073;30;20091;-61
2022/06/12 09:31:47;;;;;;;5.05;2.97;;;;;;;19.38;100.00;96617.13;4743787;30;20537;-61
2022/06/12 09:34:44;;;;;;;0.90;0.90;;;;;;;19.51;100.00;96616.03;4743347;30;20070;-61
2022/06/12 09:40:52;;;;;;;1.02;1.02;;;;;;;19.95;100.00;96619.34;4743619;30;20083;-61
2022/06/12 09:43:40;;;;;;;1.23;1.23;;;;;;;20.09;100.00;96613.31;4731999;30;20067;-61
2022/06/12 09:47:01;;;;;;;1.42;1.33;;;;;;;20.07;100.00;96613.78;4743422;30;20111;-60
2022/06/12 09:49:31;;;;;;;1.17;1.17;;;;;;;20.06;100.00;96588.91;4688324;30;20069;-60
2022/06/12 09:52:01;;;;;;;0.80;0.80;;;;;;;20.29;100.00;96609.16;4734548;30;20086;-60
2022/06/12 09:54:55;;;;;;;0.80;0.80;;;;;;;20.36;100.00;96608.19;4743678;30;20878;-61
2022/06/12 09:57:34;;;;;;;1.23;1.23;;;;;;;20.52;100.00;96605.28;4743337;30;20068;-61
2022/06/12 10:00:05;;;;;;;0.90;0.90;;;;;;;20.65;100.00;96598.47;4743387;30;20076;-60
2022/06/12 10:02:42;;;;;;;0.93;0.93;;;;;;;20.68;100.00;96610.84;4741710;30;20068;-61
2022/06/12 10:05:28;;;;;;;1.20;1.20;;;;;;;20.68;100.00;96608.81;4726718;30;20060;-60
2022/06/12 10:08:05;;;;;;;1.00;1.00;;;;;;;20.61;100.00;96597.00;4753300;30;20539;-59
2022/06/12 10:11:00;;;;;;;5.80;2.88;;;;;;;20.61;100.00;96591.38;4743509;30;20059;-60
2022/06/12 10:13:35;;;;;;;1.17;1.17;;;;;;;20.65;100.00;96597.66;4737986;30;20554;-61
2022/06/12 10:16:10;;;;;;;1.20;1.20;;;;;;;20.47;100.00;96600.22;4743530;30;20868;-60
2022/06/12 10:18:42;;;;;;;0.90;0.90;;;;;;;20.11;100.00;96534.91;4743346;30;20091;-61
2022/06/12 10:21:15;;;;;;;1.30;1.25;;;;;;;20.41;100.00;96593.53;4743118;30;20448;-60
2022/06/12 10:23:41;;;;;;;0.90;0.90;;;;;;;20.41;100.00;96594.34;4742997;30;20064;-62
2022/06/12 10:26:21;;;;;;;0.90;0.90;;;;;;;20.24;100.00;96600.47;4742931;30;20059;-60
2022/06/12 10:29:04;;;;;;;1.00;1.00;;;;;;;20.03;100.00;96572.91;4741657;30;20063;-62
2022/06/12 10:31:46;;;;;;;0.80;0.80;;;;;;;19.21;100.00;96467.50;4741123;30;20504;-61
2022/06/12 10:34:23;;;;;;;0.90;0.90;;;;;;;19.83;100.00;96569.44;4741871;30;20163;-61
2022/06/12 10:36:50;;;;;;;1.15;1.15;;;;;;;19.94;100.00;96586.81;4742390;30;20064;-62
2022/06/12 10:39:25;;;;;;;1.48;1.42;;;;;;;19.80;100.00;96567.50;4726640;30;20060;-60
2022/06/12 10:42:01;;;;;;;1.50;1.25;;;;;;;19.90;100.00;96588.94;4743228;30;20071;-61
2022/06/12 10:44:43;;;;;;;0.70;0.70;;;;;;;19.93;100.00;96590.84;4741204;30;20056;-61
2022/06/12 10:47:23;;;;;;;1.20;1.20;;;;;;;19.95;100.00;96586.34;4742892;30;20071;-61
2022/06/12 10:50:01;;;;;;;0.70;0.70;;;;;;;19.84;100.00;96593.53;4741484;30;20568;-59
2022/06/12 10:52:28;;;;;;;1.10;1.10;;;;;;;19.75;100.00;96590.53;4742744;30;20060;-61
2022/06/12 10:54:55;;;;;;;1.20;1.20;;;;;;;19.53;100.00;96551.75;4743102;30;20067;-61
2022/06/12 10:57:46;;;;;;;0.90;0.90;;;;;;;19.94;100.00;96592.44;4742875;30;20583;-61
2022/06/12 11:00:20;;;;;;;0.70;0.70;;;;;;;20.08;100.00;96597.66;4741564;30;20071;-62
2022/06/12 11:03:02;;;;;;;0.95;0.95;;;;;;;20.16;100.00;96610.34;4742909;30;20067;-60
2022/06/12 11:05:45;;;;;;;1.00;1.00;;;;;;;20.21;100.00;96609.78;4742299;30;20623;-60
2022/06/12 11:08:34;;;;;;;1.10;1.10;;;;;;;20.24;100.00;96606.09;4742946;30;20126;-61
2022/06/12 11:11:06;;;;;;;0.82;0.82;;;;;;;19.75;100.00;96554.00;4741161;30;20072;-61
2022/06/12 11:13:46;;;;;;;1.10;1.10;;;;;;;20.07;100.00;96608.16;4742803;30;20099;-60
2022/06/12 11:16:29;;;;;;;1.17;1.17;;;;;;;20.15;100.00;96603.94;4743034;30;20302;-60
2022/06/12 11:19:13;;;;;;;0.90;0.90;;;;;;;19.01;100.00;96424.69;4726934;30;20063;-61
2022/06/12 11:21:54;;;;;;;1.23;1.17;;;;;;;20.30;100.00;96604.31;4742866;30;20064;-60
2022/06/12 11:24:24;;;;;;;1.00;1.00;;;;;;;20.42;100.00;96606.41;4740684;30;20164;-61
2022/06/12 11:27:17;;;;;;;0.90;0.90;;;;;;;20.27;100.00;96549.75;4741282;30;20075;-61
2022/06/12 11:29:59;;;;;;;0.80;0.80;;;;;;;20.90;100.00;96586.44;4742757;30;20056;-60
2022/06/12 11:32:38;;;;;;;0.90;0.90;;;;;;;21.19;100.00;96592.81;4741318;30;20071;-61
2022/06/12 11:35:32;;;;;;;0.95;0.95;;;;;;;21.87;100.00;96587.34;4745162;30;20068;-60
2022/06/12 11:38:27;;;;;;;1.00;1.00;;;;;;;22.34;95.53;96590.88;4744389;30;20103;-61
2022/06/12 11:41:12;;;;;;;1.33;1.33;;;;;;;22.76;92.37;96557.50;4745174;30;20079;-59
2022/06/12 11:43:59;;;;;;;1.10;1.10;;;;;;;23.08;84.21;96571.13;4758683;30;20573;-61
2022/06/12 11:46:44;;;;;;;1.35;1.35;;;;;;;23.44;78.42;96590.31;4745473;30;20126;-61
2022/06/12 11:50:10;;;;;;;1.10;1.10;;;;;;;23.62;76.88;96556.44;4745677;30;20491;-60
2022/06/12 11:52:43;;;;;;;1.40;1.40;;;;;;;24.13;78.42;96585.78;4708205;30;20065;-60
2022/06/12 11:55:29;;;;;;;1.10;1.10;;;;;;;24.17;78.06;96586.41;4707586;30;20375;-60
2022/06/12 11:58:11;;;;;;;1.38;1.38;;;;;;;23.85;72.77;96553.81;4731752;30;20075;-60
2022/06/12 12:00:45;;;;;;;1.67;1.58;;;;;;;24.64;72.72;96578.22;4743986;30;20071;-61
2022/06/12 12:03:50;;;;;;;1.20;1.20;;;;;;;25.06;67.34;96576.28;4745669;30;20426;-60
2022/06/12 12:06:23;;;;;;;1.98;1.88;;;;;;;24.84;69.99;96583.41;4690327;30;20065;-60
2022/06/12 12:09:01;;;;;;;1.33;1.33;;;;;;;25.06;66.36;96578.31;4736399;30;20060;-61
2022/06/12 12:11:38;;;;;;;1.40;1.40;;;;;;;25.26;68.30;96573.66;4743612;30;20056;-60
2022/06/12 12:14:07;;;;;;;1.23;1.23;;;;;;;25.45;66.70;96565.13;4743608;30;20068;-60
2022/06/12 12:16:51;;;;;;;1.60;1.60;;;;;;;25.45;67.74;96570.78;4745424;30;20472;-58